sensor_id;sensor_type;location;lat;lon;timestamp;P1;durP1;ratioP1;P2;durP2;ratioP2
70270;SDS011;57680;54.292;18.598;2023-02-04T00:01:27;2.97;;;0.97;;
70270;SDS011;57680;54.292;18.598;2023-02-04T00:03:53;2.93;;;1.00;;
70270;SDS011;57680;54.292;18.598;2023-02-04T00:06:18;3.90;;;0.85;;
70270;SDS011;57680;54.292;18.598;2023-02-04T00:08:44;5.00;;;1.30;;
70270;SDS011;57680;54.292;18.598;2023-02-04T00:11:09;5.37;;;1.30;;
70270;SDS011;57680;54.292;18.598;2023-02-04T00:13:35;3.67;;;0.90;;
70270;SDS011;57680;54.292;18.598;2023-02-04T00:16:01;5.33;;;1.57;;
70270;SDS011;57680;54.292;18.598;2023-02-04T00:18:27;4.35;;;1.30;;
70270;SDS011;57680;54.292;18.598;2023-02-04T00:20:53;4.90;;;1.30;;
70270;SDS011;57680;54.292;18.598;2023-02-04T00:23:19;3.10;;;1.30;;
70270;SDS011;57680;54.292;18.598;2023-02-04T00:25:44;5.22;;;1.60;;
70270;SDS011;57680;54.292;18.598;2023-02-04T00:28:10;3.63;;;1.07;;
70270;SDS011;57680;54.292;18.598;2023-02-04T00:30:36;5.07;;;1.40;;
70270;SDS011;57680;54.292;18.598;2023-02-04T00:33:01;3.42;;;1.00;;
70270;SDS011;57680;54.292;18.598;2023-02-04T00:35:27;5.87;;;1.20;;
70270;SDS011;57680;54.292;18.598;2023-02-04T00:37:52;4.27;;;1.10;;
70270;SDS011;57680;54.292;18.598;2023-02-04T00:40:18;4.85;;;1.02;;
70270;SDS011;57680;54.292;18.598;2023-02-04T00:42:44;3.50;;;1.20;;
70270;SDS011;57680;54.292;18.598;2023-02-04T00:45:09;2.83;;;0.90;;
70270;SDS011;57680;54.292;18.598;2023-02-04T00:47:35;3.23;;;0.97;;
70270;SDS011;57680;54.292;18.598;2023-02-04T00:50:01;2.72;;;0.75;;
70270;SDS011;57680;54.292;18.598;2023-02-04T00:52:27;3.85;;;1.02;;
70270;SDS011;57680;54.292;18.598;2023-02-04T00:54:54;2.67;;;1.00;;
70270;SDS011;57680;54.292;18.598;2023-02-04T00:57:20;2.30;;;0.93;;
70270;SDS011;57680;54.292;18.598;2023-02-04T00:59:45;3.77;;;0.97;;
70270;SDS011;57680;54.292;18.598;2023-02-04T01:02:11;1.93;;;0.50;;
70270;SDS011;57680;54.292;18.598;2023-02-04T01:04:36;3.17;;;0.80;;
70270;SDS011;57680;54.292;18.598;2023-02-04T01:07:02;2.43;;;0.57;;
70270;SDS011;57680;54.292;18.598;2023-02-04T01:09:27;3.60;;;0.60;;
70270;SDS011;57680;54.292;18.598;2023-02-04T01:11:53;3.25;;;0.60;;
70270;SDS011;57680;54.292;18.598;2023-02-04T01:14:18;2.83;;;1.10;;
70270;SDS011;57680;54.292;18.598;2023-02-04T01:16:44;2.20;;;0.50;;
70270;SDS011;57680;54.292;18.598;2023-02-04T01:19:10;1.52;;;0.52;;
70270;SDS011;57680;54.292;18.598;2023-02-04T01:21:36;1.80;;;0.50;;
70270;SDS011;57680;54.292;18.598;2023-02-04T01:24:02;2.88;;;0.45;;
70270;SDS011;57680;54.292;18.598;2023-02-04T01:26:27;2.25;;;0.60;;
70270;SDS011;57680;54.292;18.598;2023-02-04T01:28:53;4.00;;;0.40;;
70270;SDS011;57680;54.292;18.598;2023-02-04T01:31:19;1.67;;;0.40;;
70270;SDS011;57680;54.292;18.598;2023-02-04T01:33:44;1.40;;;0.40;;
70270;SDS011;57680;54.292;18.598;2023-02-04T01:36:10;3.67;;;0.43;;
70270;SDS011;57680;54.292;18.598;2023-02-04T01:38:35;1.05;;;0.30;;
70270;SDS011;57680;54.292;18.598;2023-02-04T01:41:01;0.80;;;0.33;;
70270;SDS011;57680;54.292;18.598;2023-02-04T01:43:28;2.50;;;0.43;;
70270;SDS011;57680;54.292;18.598;2023-02-04T01:45:54;2.90;;;0.57;;
70270;SDS011;57680;54.292;18.598;2023-02-04T01:48:19;3.17;;;0.60;;
70270;SDS011;57680;54.292;18.598;2023-02-04T01:51:19;2.05;;;0.70;;
70270;SDS011;57680;54.292;18.598;2023-02-04T01:53:51;2.20;;;0.30;;
70270;SDS011;57680;54.292;18.598;2023-02-04T01:56:17;1.90;;;0.55;;
70270;SDS011;57680;54.292;18.598;2023-02-04T01:58:44;2.25;;;0.43;;
70270;SDS011;57680;54.292;18.598;2023-02-04T02:01:53;2.23;;;0.60;;
70270;SDS011;57680;54.292;18.598;2023-02-04T02:04:02;3.70;;;0.77;;
70270;SDS011;57680;54.292;18.598;2023-02-04T02:06:29;4.32;;;0.68;;
70270;SDS011;57680;54.292;18.598;2023-02-04T02:08:55;3.23;;;0.40;;
70270;SDS011;57680;54.292;18.598;2023-02-04T02:11:22;1.67;;;0.40;;
70270;SDS011;57680;54.292;18.598;2023-02-04T02:13:48;1.98;;;0.40;;
70270;SDS011;57680;54.292;18.598;2023-02-04T02:16:14;1.10;;;0.40;;
70270;SDS011;57680;54.292;18.598;2023-02-04T02:18:39;3.67;;;0.50;;
70270;SDS011;57680;54.292;18.598;2023-02-04T02:21:05;3.38;;;1.00;;
70270;SDS011;57680;54.292;18.598;2023-02-04T02:23:44;3.83;;;0.60;;
70270;SDS011;57680;54.292;18.598;2023-02-04T02:26:12;1.92;;;0.40;;
70270;SDS011;57680;54.292;18.598;2023-02-04T02:28:39;1.83;;;0.63;;
70270;SDS011;57680;54.292;18.598;2023-02-04T02:31:05;2.05;;;0.50;;
70270;SDS011;57680;54.292;18.598;2023-02-04T02:33:32;2.33;;;0.63;;
70270;SDS011;57680;54.292;18.598;2023-02-04T02:35:57;1.63;;;0.53;;
70270;SDS011;57680;54.292;18.598;2023-02-04T02:38:23;5.10;;;0.50;;
70270;SDS011;57680;54.292;18.598;2023-02-04T02:40:49;2.20;;;0.60;;
70270;SDS011;57680;54.292;18.598;2023-02-04T02:43:17;2.97;;;0.63;;
70270;SDS011;57680;54.292;18.598;2023-02-04T02:45:45;2.97;;;0.60;;
70270;SDS011;57680;54.292;18.598;2023-02-04T02:48:11;4.00;;;1.00;;
70270;SDS011;57680;54.292;18.598;2023-02-04T02:50:37;4.03;;;1.20;;
70270;SDS011;57680;54.292;18.598;2023-02-04T02:53:04;1.52;;;0.60;;
70270;SDS011;57680;54.292;18.598;2023-02-04T02:55:34;2.07;;;0.33;;
70270;SDS011;57680;54.292;18.598;2023-02-04T02:57:59;4.13;;;0.50;;
70270;SDS011;57680;54.292;18.598;2023-02-04T03:00:26;6.47;;;0.87;;
70270;SDS011;57680;54.292;18.598;2023-02-04T03:02:57;5.90;;;1.13;;
70270;SDS011;57680;54.292;18.598;2023-02-04T03:05:24;4.38;;;1.40;;
70270;SDS011;57680;54.292;18.598;2023-02-04T03:07:50;5.23;;;0.90;;
70270;SDS011;57680;54.292;18.598;2023-02-04T03:10:16;4.97;;;0.80;;
70270;SDS011;57680;54.292;18.598;2023-02-04T03:12:43;8.20;;;1.40;;
70270;SDS011;57680;54.292;18.598;2023-02-04T03:15:09;8.65;;;1.38;;
70270;SDS011;57680;54.292;18.598;2023-02-04T03:17:34;5.23;;;1.40;;
70270;SDS011;57680;54.292;18.598;2023-02-04T03:20:00;5.37;;;0.80;;
70270;SDS011;57680;54.292;18.598;2023-02-04T03:22:26;3.25;;;0.57;;
70270;SDS011;57680;54.292;18.598;2023-02-04T03:24:52;4.40;;;0.30;;
70270;SDS011;57680;54.292;18.598;2023-02-04T03:27:19;0.85;;;0.30;;
70270;SDS011;57680;54.292;18.598;2023-02-04T03:29:52;2.72;;;0.50;;
70270;SDS011;57680;54.292;18.598;2023-02-04T03:32:20;2.85;;;0.60;;
70270;SDS011;57680;54.292;18.598;2023-02-04T03:34:48;2.45;;;1.00;;
70270;SDS011;57680;54.292;18.598;2023-02-04T03:37:13;7.07;;;0.90;;
70270;SDS011;57680;54.292;18.598;2023-02-04T03:39:38;3.37;;;0.83;;
70270;SDS011;57680;54.292;18.598;2023-02-04T03:42:04;4.15;;;0.70;;
70270;SDS011;57680;54.292;18.598;2023-02-04T03:44:29;1.23;;;0.60;;
70270;SDS011;57680;54.292;18.598;2023-02-04T03:46:55;3.20;;;0.97;;
70270;SDS011;57680;54.292;18.598;2023-02-04T03:49:21;2.25;;;0.40;;
70270;SDS011;57680;54.292;18.598;2023-02-04T03:51:47;4.50;;;0.60;;
70270;SDS011;57680;54.292;18.598;2023-02-04T03:54:12;3.63;;;0.70;;
70270;SDS011;57680;54.292;18.598;2023-02-04T03:56:38;3.87;;;0.70;;
70270;SDS011;57680;54.292;18.598;2023-02-04T03:59:03;3.60;;;0.60;;
70270;SDS011;57680;54.292;18.598;2023-02-04T04:01:28;1.10;;;0.43;;
70270;SDS011;57680;54.292;18.598;2023-02-04T04:03:54;2.03;;;0.57;;
70270;SDS011;57680;54.292;18.598;2023-02-04T04:06:19;3.23;;;0.67;;
70270;SDS011;57680;54.292;18.598;2023-02-04T04:08:45;3.70;;;0.60;;
70270;SDS011;57680;54.292;18.598;2023-02-04T04:11:10;5.82;;;0.68;;
70270;SDS011;57680;54.292;18.598;2023-02-04T04:13:36;2.67;;;0.70;;
70270;SDS011;57680;54.292;18.598;2023-02-04T04:16:01;2.83;;;0.70;;
70270;SDS011;57680;54.292;18.598;2023-02-04T04:18:28;7.00;;;0.80;;
70270;SDS011;57680;54.292;18.598;2023-02-04T04:20:54;2.90;;;0.45;;
70270;SDS011;57680;54.292;18.598;2023-02-04T04:23:20;2.40;;;0.70;;
70270;SDS011;57680;54.292;18.598;2023-02-04T04:25:45;1.50;;;0.47;;
70270;SDS011;57680;54.292;18.598;2023-02-04T04:28:11;3.77;;;0.80;;
70270;SDS011;57680;54.292;18.598;2023-02-04T04:30:36;5.53;;;0.60;;
70270;SDS011;57680;54.292;18.598;2023-02-04T04:33:02;1.60;;;0.30;;
70270;SDS011;57680;54.292;18.598;2023-02-04T04:35:27;3.50;;;0.53;;
70270;SDS011;57680;54.292;18.598;2023-02-04T04:37:53;4.55;;;0.80;;
70270;SDS011;57680;54.292;18.598;2023-02-04T04:40:18;2.37;;;0.63;;
70270;SDS011;57680;54.292;18.598;2023-02-04T04:42:44;1.60;;;0.50;;
70270;SDS011;57680;54.292;18.598;2023-02-04T04:45:09;3.20;;;1.00;;
70270;SDS011;57680;54.292;18.598;2023-02-04T04:47:35;4.40;;;1.25;;
70270;SDS011;57680;54.292;18.598;2023-02-04T04:50:01;4.23;;;1.13;;
70270;SDS011;57680;54.292;18.598;2023-02-04T04:52:27;1.92;;;0.80;;
70270;SDS011;57680;54.292;18.598;2023-02-04T04:54:53;3.37;;;0.60;;
70270;SDS011;57680;54.292;18.598;2023-02-04T04:57:18;2.23;;;0.67;;
70270;SDS011;57680;54.292;18.598;2023-02-04T04:59:43;1.63;;;0.40;;
70270;SDS011;57680;54.292;18.598;2023-02-04T05:02:09;4.07;;;0.50;;
70270;SDS011;57680;54.292;18.598;2023-02-04T05:04:34;1.00;;;0.30;;
70270;SDS011;57680;54.292;18.598;2023-02-04T05:07:00;2.37;;;0.60;;
70270;SDS011;57680;54.292;18.598;2023-02-04T05:09:25;3.17;;;0.60;;
70270;SDS011;57680;54.292;18.598;2023-02-04T05:11:50;4.60;;;1.10;;
70270;SDS011;57680;54.292;18.598;2023-02-04T05:14:16;3.27;;;0.60;;
70270;SDS011;57680;54.292;18.598;2023-02-04T05:16:41;1.20;;;0.40;;
70270;SDS011;57680;54.292;18.598;2023-02-04T05:19:07;2.37;;;0.40;;
70270;SDS011;57680;54.292;18.598;2023-02-04T05:21:32;0.95;;;0.30;;
70270;SDS011;57680;54.292;18.598;2023-02-04T05:23:58;4.60;;;0.80;;
70270;SDS011;57680;54.292;18.598;2023-02-04T05:26:23;3.00;;;0.63;;
70270;SDS011;57680;54.292;18.598;2023-02-04T05:28:48;0.80;;;0.30;;
70270;SDS011;57680;54.292;18.598;2023-02-04T05:31:14;1.58;;;0.43;;
70270;SDS011;57680;54.292;18.598;2023-02-04T05:33:39;3.47;;;1.00;;
70270;SDS011;57680;54.292;18.598;2023-02-04T05:36:05;2.67;;;0.43;;
70270;SDS011;57680;54.292;18.598;2023-02-04T05:38:30;2.90;;;1.20;;
70270;SDS011;57680;54.292;18.598;2023-02-04T05:40:56;3.03;;;0.65;;
70270;SDS011;57680;54.292;18.598;2023-02-04T05:43:21;1.67;;;0.40;;
70270;SDS011;57680;54.292;18.598;2023-02-04T05:45:47;3.45;;;0.70;;
70270;SDS011;57680;54.292;18.598;2023-02-04T05:48:12;2.27;;;0.60;;
70270;SDS011;57680;54.292;18.598;2023-02-04T05:50:38;3.60;;;0.63;;
70270;SDS011;57680;54.292;18.598;2023-02-04T05:53:03;4.37;;;0.70;;
70270;SDS011;57680;54.292;18.598;2023-02-04T05:55:28;4.13;;;1.10;;
70270;SDS011;57680;54.292;18.598;2023-02-04T05:57:54;1.42;;;0.47;;
70270;SDS011;57680;54.292;18.598;2023-02-04T06:00:19;2.70;;;0.77;;
70270;SDS011;57680;54.292;18.598;2023-02-04T06:02:45;3.10;;;0.80;;
70270;SDS011;57680;54.292;18.598;2023-02-04T06:05:11;3.53;;;0.95;;
70270;SDS011;57680;54.292;18.598;2023-02-04T06:07:36;5.33;;;1.20;;
70270;SDS011;57680;54.292;18.598;2023-02-04T06:10:02;3.93;;;1.40;;
70270;SDS011;57680;54.292;18.598;2023-02-04T06:12:27;2.70;;;0.70;;
70270;SDS011;57680;54.292;18.598;2023-02-04T06:14:53;1.60;;;0.50;;
70270;SDS011;57680;54.292;18.598;2023-02-04T06:17:19;4.35;;;1.08;;
70270;SDS011;57680;54.292;18.598;2023-02-04T06:19:44;3.97;;;1.43;;
70270;SDS011;57680;54.292;18.598;2023-02-04T06:22:09;3.50;;;0.77;;
70270;SDS011;57680;54.292;18.598;2023-02-04T06:24:35;5.57;;;1.73;;
70270;SDS011;57680;54.292;18.598;2023-02-04T06:27:01;5.75;;;1.35;;
70270;SDS011;57680;54.292;18.598;2023-02-04T06:29:26;4.80;;;1.58;;
70270;SDS011;57680;54.292;18.598;2023-02-04T06:31:52;5.97;;;1.33;;
70270;SDS011;57680;54.292;18.598;2023-02-04T06:34:17;5.23;;;1.10;;
70270;SDS011;57680;54.292;18.598;2023-02-04T06:36:43;2.93;;;0.80;;
70270;SDS011;57680;54.292;18.598;2023-02-04T06:39:08;4.30;;;1.20;;
70270;SDS011;57680;54.292;18.598;2023-02-04T06:41:33;3.83;;;1.10;;
70270;SDS011;57680;54.292;18.598;2023-02-04T06:43:59;3.63;;;0.83;;
70270;SDS011;57680;54.292;18.598;2023-02-04T06:46:24;4.30;;;1.30;;
70270;SDS011;57680;54.292;18.598;2023-02-04T06:48:49;3.87;;;0.70;;
70270;SDS011;57680;54.292;18.598;2023-02-04T06:51:15;6.17;;;1.50;;
70270;SDS011;57680;54.292;18.598;2023-02-04T06:53:40;3.92;;;0.90;;
70270;SDS011;57680;54.292;18.598;2023-02-04T06:56:08;4.07;;;0.97;;
70270;SDS011;57680;54.292;18.598;2023-02-04T06:58:34;3.33;;;0.82;;
70270;SDS011;57680;54.292;18.598;2023-02-04T07:01:00;3.97;;;1.20;;
70270;SDS011;57680;54.292;18.598;2023-02-04T07:03:25;5.68;;;1.20;;
70270;SDS011;57680;54.292;18.598;2023-02-04T07:05:51;4.13;;;1.20;;
70270;SDS011;57680;54.292;18.598;2023-02-04T07:08:18;5.45;;;1.70;;
70270;SDS011;57680;54.292;18.598;2023-02-04T07:10:43;10.80;;;2.50;;
70270;SDS011;57680;54.292;18.598;2023-02-04T07:13:09;25.20;;;7.15;;
70270;SDS011;57680;54.292;18.598;2023-02-04T07:15:34;8.10;;;2.17;;
70270;SDS011;57680;54.292;18.598;2023-02-04T07:18:00;9.37;;;3.57;;
70270;SDS011;57680;54.292;18.598;2023-02-04T07:20:25;9.53;;;2.53;;
70270;SDS011;57680;54.292;18.598;2023-02-04T07:22:51;11.10;;;2.47;;
70270;SDS011;57680;54.292;18.598;2023-02-04T07:25:16;9.27;;;2.60;;
70270;SDS011;57680;54.292;18.598;2023-02-04T07:27:42;7.03;;;1.92;;
70270;SDS011;57680;54.292;18.598;2023-02-04T07:30:08;7.93;;;2.57;;
70270;SDS011;57680;54.292;18.598;2023-02-04T07:32:34;10.15;;;2.30;;
70270;SDS011;57680;54.292;18.598;2023-02-04T07:35:00;10.23;;;2.30;;
70270;SDS011;57680;54.292;18.598;2023-02-04T07:37:26;7.90;;;2.10;;
70270;SDS011;57680;54.292;18.598;2023-02-04T07:39:52;5.50;;;1.10;;
70270;SDS011;57680;54.292;18.598;2023-02-04T07:42:17;9.50;;;2.00;;
70270;SDS011;57680;54.292;18.598;2023-02-04T07:44:42;5.87;;;1.73;;
70270;SDS011;57680;54.292;18.598;2023-02-04T07:47:08;7.03;;;2.30;;
70270;SDS011;57680;54.292;18.598;2023-02-04T07:49:33;10.20;;;2.63;;
70270;SDS011;57680;54.292;18.598;2023-02-04T07:51:58;9.77;;;3.23;;
70270;SDS011;57680;54.292;18.598;2023-02-04T07:54:24;8.90;;;3.17;;
70270;SDS011;57680;54.292;18.598;2023-02-04T07:56:49;12.07;;;2.40;;
70270;SDS011;57680;54.292;18.598;2023-02-04T07:59:15;6.43;;;1.53;;
70270;SDS011;57680;54.292;18.598;2023-02-04T08:01:40;9.30;;;2.07;;
70270;SDS011;57680;54.292;18.598;2023-02-04T08:04:06;5.47;;;1.33;;
70270;SDS011;57680;54.292;18.598;2023-02-04T08:06:31;3.33;;;1.27;;
70270;SDS011;57680;54.292;18.598;2023-02-04T08:08:57;5.53;;;1.23;;
70270;SDS011;57680;54.292;18.598;2023-02-04T08:11:22;7.25;;;2.13;;
70270;SDS011;57680;54.292;18.598;2023-02-04T08:13:48;9.67;;;2.27;;
70270;SDS011;57680;54.292;18.598;2023-02-04T08:16:13;9.90;;;2.77;;
70270;SDS011;57680;54.292;18.598;2023-02-04T08:18:39;8.70;;;2.30;;
70270;SDS011;57680;54.292;18.598;2023-02-04T08:21:04;6.13;;;1.80;;
70270;SDS011;57680;54.292;18.598;2023-02-04T08:23:30;6.73;;;1.83;;
70270;SDS011;57680;54.292;18.598;2023-02-04T08:25:57;4.75;;;1.60;;
70270;SDS011;57680;54.292;18.598;2023-02-04T08:28:23;4.32;;;1.27;;
70270;SDS011;57680;54.292;18.598;2023-02-04T08:30:49;4.03;;;1.10;;
70270;SDS011;57680;54.292;18.598;2023-02-04T08:33:15;4.75;;;1.42;;
70270;SDS011;57680;54.292;18.598;2023-02-04T08:35:40;4.83;;;1.33;;
70270;SDS011;57680;54.292;18.598;2023-02-04T08:38:06;2.63;;;0.93;;
70270;SDS011;57680;54.292;18.598;2023-02-04T08:40:31;2.20;;;0.90;;
70270;SDS011;57680;54.292;18.598;2023-02-04T08:42:57;5.30;;;1.53;;
70270;SDS011;57680;54.292;18.598;2023-02-04T08:45:23;4.05;;;1.80;;
70270;SDS011;57680;54.292;18.598;2023-02-04T08:47:49;3.75;;;1.20;;
70270;SDS011;57680;54.292;18.598;2023-02-04T08:50:14;3.17;;;1.40;;
70270;SDS011;57680;54.292;18.598;2023-02-04T08:52:42;2.90;;;1.30;;
70270;SDS011;57680;54.292;18.598;2023-02-04T08:55:07;4.13;;;1.60;;
70270;SDS011;57680;54.292;18.598;2023-02-04T08:57:33;3.22;;;1.15;;
70270;SDS011;57680;54.292;18.598;2023-02-04T08:59:59;3.00;;;0.90;;
70270;SDS011;57680;54.292;18.598;2023-02-04T09:02:24;4.47;;;2.03;;
70270;SDS011;57680;54.292;18.598;2023-02-04T09:04:50;5.65;;;1.63;;
70270;SDS011;57680;54.292;18.598;2023-02-04T09:07:15;8.23;;;2.70;;
70270;SDS011;57680;54.292;18.598;2023-02-04T09:09:41;5.40;;;1.93;;
70270;SDS011;57680;54.292;18.598;2023-02-04T09:12:06;5.55;;;1.77;;
70270;SDS011;57680;54.292;18.598;2023-02-04T09:14:32;3.47;;;1.43;;
70270;SDS011;57680;54.292;18.598;2023-02-04T09:16:58;7.03;;;1.23;;
70270;SDS011;57680;54.292;18.598;2023-02-04T09:19:23;6.97;;;2.65;;
70270;SDS011;57680;54.292;18.598;2023-02-04T09:21:49;6.50;;;1.53;;
70270;SDS011;57680;54.292;18.598;2023-02-04T09:24:17;6.15;;;2.25;;
70270;SDS011;57680;54.292;18.598;2023-02-04T09:26:42;3.88;;;1.20;;
70270;SDS011;57680;54.292;18.598;2023-02-04T09:29:08;5.20;;;1.63;;
70270;SDS011;57680;54.292;18.598;2023-02-04T09:31:33;4.23;;;1.53;;
70270;SDS011;57680;54.292;18.598;2023-02-04T09:33:59;5.43;;;1.73;;
70270;SDS011;57680;54.292;18.598;2023-02-04T09:36:24;4.80;;;1.70;;
70270;SDS011;57680;54.292;18.598;2023-02-04T09:38:52;4.18;;;1.98;;
70270;SDS011;57680;54.292;18.598;2023-02-04T09:41:18;5.57;;;1.67;;
70270;SDS011;57680;54.292;18.598;2023-02-04T09:43:44;7.00;;;1.60;;
70270;SDS011;57680;54.292;18.598;2023-02-04T09:46:20;4.65;;;1.20;;
70270;SDS011;57680;54.292;18.598;2023-02-04T09:48:47;6.35;;;1.67;;
70270;SDS011;57680;54.292;18.598;2023-02-04T09:51:15;6.05;;;1.80;;
70270;SDS011;57680;54.292;18.598;2023-02-04T09:53:43;6.15;;;2.20;;
70270;SDS011;57680;54.292;18.598;2023-02-04T09:56:10;5.17;;;1.53;;
70270;SDS011;57680;54.292;18.598;2023-02-04T09:58:37;7.35;;;2.15;;
70270;SDS011;57680;54.292;18.598;2023-02-04T10:01:10;7.83;;;2.23;;
70270;SDS011;57680;54.292;18.598;2023-02-04T10:03:40;3.28;;;1.10;;
70270;SDS011;57680;54.292;18.598;2023-02-04T10:06:14;5.00;;;1.27;;
70270;SDS011;57680;54.292;18.598;2023-02-04T10:08:41;4.47;;;1.10;;
70270;SDS011;57680;54.292;18.598;2023-02-04T10:11:08;4.03;;;0.80;;
70270;SDS011;57680;54.292;18.598;2023-02-04T10:13:40;2.10;;;0.80;;
70270;SDS011;57680;54.292;18.598;2023-02-04T10:16:14;4.88;;;1.30;;
70270;SDS011;57680;54.292;18.598;2023-02-04T10:18:43;5.00;;;1.40;;
70270;SDS011;57680;54.292;18.598;2023-02-04T10:23:43;7.10;;;1.43;;
70270;SDS011;57680;54.292;18.598;2023-02-04T10:26:13;3.70;;;1.13;;
70270;SDS011;57680;54.292;18.598;2023-02-04T10:28:39;7.75;;;1.98;;
70270;SDS011;57680;54.292;18.598;2023-02-04T10:31:10;4.63;;;1.30;;
70270;SDS011;57680;54.292;18.598;2023-02-04T10:36:45;2.07;;;0.90;;
70270;SDS011;57680;54.292;18.598;2023-02-04T10:39:13;4.45;;;0.93;;
70270;SDS011;57680;54.292;18.598;2023-02-04T10:44:18;3.20;;;1.00;;
70270;SDS011;57680;54.292;18.598;2023-02-04T10:46:58;2.42;;;0.98;;
70270;SDS011;57680;54.292;18.598;2023-02-04T10:49:27;2.47;;;1.10;;
70270;SDS011;57680;54.292;18.598;2023-02-04T10:51:53;4.68;;;1.50;;
70270;SDS011;57680;54.292;18.598;2023-02-04T10:54:19;3.50;;;1.37;;
70270;SDS011;57680;54.292;18.598;2023-02-04T10:59:22;4.47;;;1.37;;
70270;SDS011;57680;54.292;18.598;2023-02-04T11:01:56;4.15;;;1.17;;
70270;SDS011;57680;54.292;18.598;2023-02-04T11:04:24;2.80;;;1.30;;
70270;SDS011;57680;54.292;18.598;2023-02-04T11:06:51;4.40;;;1.38;;
70270;SDS011;57680;54.292;18.598;2023-02-04T11:09:17;3.28;;;1.02;;
70270;SDS011;57680;54.292;18.598;2023-02-04T11:11:47;5.43;;;1.50;;
70270;SDS011;57680;54.292;18.598;2023-02-04T11:14:32;5.47;;;1.05;;
70270;SDS011;57680;54.292;18.598;2023-02-04T11:16:57;5.20;;;1.48;;
70270;SDS011;57680;54.292;18.598;2023-02-04T11:19:37;3.83;;;1.05;;
70270;SDS011;57680;54.292;18.598;2023-02-04T11:22:18;4.03;;;1.58;;
70270;SDS011;57680;54.292;18.598;2023-02-04T11:27:58;4.20;;;1.20;;
70270;SDS011;57680;54.292;18.598;2023-02-04T11:30:29;3.90;;;1.15;;
70270;SDS011;57680;54.292;18.598;2023-02-04T11:33:01;3.13;;;1.00;;
70270;SDS011;57680;54.292;18.598;2023-02-04T11:35:28;2.58;;;0.75;;
70270;SDS011;57680;54.292;18.598;2023-02-04T11:37:54;3.37;;;0.90;;
70270;SDS011;57680;54.292;18.598;2023-02-04T11:42:56;5.15;;;1.50;;
70270;SDS011;57680;54.292;18.598;2023-02-04T11:45:24;4.75;;;1.20;;
70270;SDS011;57680;54.292;18.598;2023-02-04T11:47:50;4.28;;;1.10;;
70270;SDS011;57680;54.292;18.598;2023-02-04T11:50:24;3.40;;;1.10;;
70270;SDS011;57680;54.292;18.598;2023-02-04T11:52:55;4.95;;;1.23;;
70270;SDS011;57680;54.292;18.598;2023-02-04T11:55:22;5.20;;;1.40;;
70270;SDS011;57680;54.292;18.598;2023-02-04T11:57:52;7.53;;;1.40;;
70270;SDS011;57680;54.292;18.598;2023-02-04T12:00:23;3.85;;;1.10;;
70270;SDS011;57680;54.292;18.598;2023-02-04T12:02:57;4.07;;;1.10;;
70270;SDS011;57680;54.292;18.598;2023-02-04T12:08:47;2.75;;;1.10;;
70270;SDS011;57680;54.292;18.598;2023-02-04T12:13:32;1.75;;;0.63;;
70270;SDS011;57680;54.292;18.598;2023-02-04T12:18:23;5.10;;;1.47;;
70270;SDS011;57680;54.292;18.598;2023-02-04T12:20:52;6.77;;;2.43;;
70270;SDS011;57680;54.292;18.598;2023-02-04T12:23:18;4.75;;;2.00;;
70270;SDS011;57680;54.292;18.598;2023-02-04T12:25:43;7.00;;;2.45;;
70270;SDS011;57680;54.292;18.598;2023-02-04T12:28:09;4.33;;;1.20;;
70270;SDS011;57680;54.292;18.598;2023-02-04T12:30:34;5.60;;;1.60;;
70270;SDS011;57680;54.292;18.598;2023-02-04T12:33:00;4.10;;;1.63;;
70270;SDS011;57680;54.292;18.598;2023-02-04T12:35:26;3.80;;;1.33;;
70270;SDS011;57680;54.292;18.598;2023-02-04T12:37:51;2.80;;;1.05;;
70270;SDS011;57680;54.292;18.598;2023-02-04T12:40:18;3.00;;;1.00;;
70270;SDS011;57680;54.292;18.598;2023-02-04T12:42:45;3.47;;;1.00;;
70270;SDS011;57680;54.292;18.598;2023-02-04T12:45:11;6.27;;;1.50;;
70270;SDS011;57680;54.292;18.598;2023-02-04T12:47:38;3.30;;;1.08;;
70270;SDS011;57680;54.292;18.598;2023-02-04T12:50:04;3.20;;;1.00;;
70270;SDS011;57680;54.292;18.598;2023-02-04T12:52:31;3.80;;;1.08;;
70270;SDS011;57680;54.292;18.598;2023-02-04T12:54:57;7.82;;;1.23;;
70270;SDS011;57680;54.292;18.598;2023-02-04T12:57:24;5.40;;;1.67;;
70270;SDS011;57680;54.292;18.598;2023-02-04T12:59:49;5.45;;;1.75;;
70270;SDS011;57680;54.292;18.598;2023-02-04T13:02:15;6.77;;;1.50;;
70270;SDS011;57680;54.292;18.598;2023-02-04T13:04:42;4.80;;;1.30;;
70270;SDS011;57680;54.292;18.598;2023-02-04T13:07:07;6.70;;;1.80;;
70270;SDS011;57680;54.292;18.598;2023-02-04T13:09:34;7.63;;;1.70;;
70270;SDS011;57680;54.292;18.598;2023-02-04T13:12:02;4.72;;;1.75;;
70270;SDS011;57680;54.292;18.598;2023-02-04T13:14:27;2.97;;;1.08;;
70270;SDS011;57680;54.292;18.598;2023-02-04T13:16:53;4.73;;;1.10;;
70270;SDS011;57680;54.292;18.598;2023-02-04T13:19:19;3.60;;;1.20;;
70270;SDS011;57680;54.292;18.598;2023-02-04T13:21:45;8.20;;;1.40;;
70270;SDS011;57680;54.292;18.598;2023-02-04T13:24:11;3.85;;;1.45;;
70270;SDS011;57680;54.292;18.598;2023-02-04T13:26:36;4.70;;;1.40;;
70270;SDS011;57680;54.292;18.598;2023-02-04T13:29:02;3.90;;;1.10;;
70270;SDS011;57680;54.292;18.598;2023-02-04T13:31:27;4.07;;;1.40;;
70270;SDS011;57680;54.292;18.598;2023-02-04T13:33:53;2.92;;;1.10;;
70270;SDS011;57680;54.292;18.598;2023-02-04T13:36:19;4.10;;;1.53;;
70270;SDS011;57680;54.292;18.598;2023-02-04T13:38:44;5.65;;;1.90;;
70270;SDS011;57680;54.292;18.598;2023-02-04T13:41:10;3.90;;;1.30;;
70270;SDS011;57680;54.292;18.598;2023-02-04T13:43:35;4.40;;;1.67;;
70270;SDS011;57680;54.292;18.598;2023-02-04T13:46:00;7.67;;;2.20;;
70270;SDS011;57680;54.292;18.598;2023-02-04T13:48:28;8.63;;;2.55;;
70270;SDS011;57680;54.292;18.598;2023-02-04T13:50:53;7.65;;;2.33;;
70270;SDS011;57680;54.292;18.598;2023-02-04T13:53:19;13.20;;;3.33;;
70270;SDS011;57680;54.292;18.598;2023-02-04T13:55:45;8.00;;;2.57;;
70270;SDS011;57680;54.292;18.598;2023-02-04T13:58:10;7.75;;;2.83;;
70270;SDS011;57680;54.292;18.598;2023-02-04T14:00:36;9.57;;;2.50;;
70270;SDS011;57680;54.292;18.598;2023-02-04T14:03:01;12.10;;;3.63;;
70270;SDS011;57680;54.292;18.598;2023-02-04T14:05:27;10.20;;;3.20;;
70270;SDS011;57680;54.292;18.598;2023-02-04T14:07:52;12.98;;;2.88;;
70270;SDS011;57680;54.292;18.598;2023-02-04T14:10:18;6.63;;;2.43;;
70270;SDS011;57680;54.292;18.598;2023-02-04T14:12:45;6.07;;;1.70;;
70270;SDS011;57680;54.292;18.598;2023-02-04T14:15:11;5.90;;;1.97;;
70270;SDS011;57680;54.292;18.598;2023-02-04T14:17:36;9.63;;;2.67;;
70270;SDS011;57680;54.292;18.598;2023-02-04T14:20:02;4.05;;;1.45;;
70270;SDS011;57680;54.292;18.598;2023-02-04T14:22:29;6.97;;;2.30;;
70270;SDS011;57680;54.292;18.598;2023-02-04T14:24:55;7.68;;;2.13;;
70270;SDS011;57680;54.292;18.598;2023-02-04T14:27:20;7.20;;;2.00;;
70270;SDS011;57680;54.292;18.598;2023-02-04T14:29:46;9.73;;;2.70;;
70270;SDS011;57680;54.292;18.598;2023-02-04T14:32:11;7.68;;;2.05;;
70270;SDS011;57680;54.292;18.598;2023-02-04T14:34:37;8.13;;;2.83;;
70270;SDS011;57680;54.292;18.598;2023-02-04T14:37:02;6.87;;;2.37;;
70270;SDS011;57680;54.292;18.598;2023-02-04T14:39:28;6.45;;;2.25;;
70270;SDS011;57680;54.292;18.598;2023-02-04T14:41:53;6.53;;;2.23;;
70270;SDS011;57680;54.292;18.598;2023-02-04T14:44:18;7.90;;;2.83;;
70270;SDS011;57680;54.292;18.598;2023-02-04T14:46:48;14.65;;;3.40;;
70270;SDS011;57680;54.292;18.598;2023-02-04T14:49:14;5.30;;;1.80;;
70270;SDS011;57680;54.292;18.598;2023-02-04T14:51:40;10.37;;;4.17;;
70270;SDS011;57680;54.292;18.598;2023-02-04T14:54:06;11.30;;;4.10;;